Time;durP1;ratioP1;P1;durP2;ratioP2;P2;SDS_P1;SDS_P2;PMS_P1;PMS_P2;Temp;Humidity;BMP_temperature;BMP_pressure;BME280_temperature;BME280_humidity;BME280_pressure;Samples;Min_cycle;Max_cycle;Signal;HPM_P1;HPM_P2
2021/11/26 00:02:20;;;;;;;97.70;32.15;;;2.60;99.90;;;;;;5055717;28;20070;-84
2021/11/26 00:04:47;;;;;;;82.82;28.25;;;2.60;99.90;;;;;;5072422;28;20027;-84
2021/11/26 00:07:13;;;;;;;60.30;23.35;;;2.60;99.90;;;;;;5056528;28;20032;-85
2021/11/26 00:09:39;;;;;;;47.25;19.92;;;2.70;99.90;;;;;;5055674;28;20025;-86
2021/11/26 00:12:05;;;;;;;40.70;18.20;;;2.60;99.90;;;;;;5055542;28;20021;-85
2021/11/26 00:14:34;;;;;;;39.08;17.83;;;2.70;99.90;;;;;;5055501;28;20017;-85
2021/11/26 00:17:02;;;;;;;39.45;19.60;;;2.70;99.90;;;;;;5055519;28;20383;-85
2021/11/26 00:19:28;;;;;;;41.05;19.65;;;2.70;99.90;;;;;;5055232;28;20083;-84
2021/11/26 00:21:55;;;;;;;43.35;21.30;;;2.80;99.90;;;;;;5056562;28;20472;-85
2021/11/26 00:24:22;;;;;;;40.97;19.23;;;2.80;99.90;;;;;;5056398;28;20108;-85
2021/11/26 00:26:49;;;;;;;40.60;19.15;;;2.80;99.90;;;;;;5056558;28;20031;-85
2021/11/26 00:29:15;;;;;;;33.90;18.20;;;2.80;99.90;;;;;;5056571;28;20028;-85
2021/11/26 00:31:41;;;;;;;30.60;15.32;;;2.70;99.90;;;;;;5055239;28;20420;-85
2021/11/26 00:34:07;;;;;;;32.40;16.02;;;2.70;99.90;;;;;;5055128;28;20056;-84
2021/11/26 00:36:34;;;;;;;37.92;17.75;;;2.70;99.90;;;;;;5056254;28;20032;-85
2021/11/26 00:39:01;;;;;;;37.40;18.52;;;2.70;99.90;;;;;;5056166;28;20036;-85
2021/11/26 00:41:26;;;;;;;41.58;21.63;;;2.70;99.90;;;;;;5056396;28;20072;-85
2021/11/26 00:43:52;;;;;;;33.97;18.88;;;2.70;99.90;;;;;;5056457;28;20048;-85
2021/11/26 00:46:19;;;;;;;34.47;17.15;;;2.70;99.90;;;;;;5055074;28;20025;-85
2021/11/26 00:48:45;;;;;;;33.03;18.55;;;2.70;99.90;;;;;;5055056;28;20017;-85
2021/11/26 00:51:11;;;;;;;30.90;16.42;;;2.80;99.90;;;;;;5056391;28;20429;-85
2021/11/26 00:53:38;;;;;;;29.85;15.80;;;2.70;99.90;;;;;;5055892;28;20029;-85
2021/11/26 00:56:04;;;;;;;24.92;14.35;;;2.70;99.90;;;;;;5055068;28;20040;-85
2021/11/26 00:58:30;;;;;;;27.38;14.30;;;2.60;99.90;;;;;;5054426;28;20369;-85
2021/11/26 01:00:56;;;;;;;29.17;15.68;;;2.60;99.90;;;;;;5056137;28;20028;-85
2021/11/26 01:03:22;;;;;;;37.33;18.75;;;2.60;99.90;;;;;;5054815;28;20094;-85
2021/11/26 01:05:49;;;;;;;38.42;17.80;;;2.50;99.90;;;;;;5055921;28;20491;-84
2021/11/26 01:08:17;;;;;;;42.53;19.52;;;2.40;99.90;;;;;;5056289;28;20031;-85
2021/11/26 01:10:44;;;;;;;46.83;20.48;;;2.40;99.90;;;;;;5056003;28;20021;-85
2021/11/26 01:13:10;;;;;;;50.50;20.40;;;2.40;99.90;;;;;;5054417;28;20017;-85
2021/11/26 01:15:39;;;;;;;44.78;21.75;;;2.50;99.90;;;;;;5034765;28;20026;-85
2021/11/26 01:18:05;;;;;;;42.05;19.95;;;2.50;99.90;;;;;;5034609;28;20030;-84
2021/11/26 01:20:34;;;;;;;48.17;21.30;;;2.60;99.90;;;;;;5035843;28;20030;-85
2021/11/26 01:23:00;;;;;;;44.08;22.17;;;2.60;99.90;;;;;;5034400;28;20025;-85
2021/11/26 01:25:27;;;;;;;36.72;19.27;;;2.60;99.90;;;;;;5034227;28;20054;-85
2021/11/26 01:27:54;;;;;;;42.95;23.88;;;2.60;99.90;;;;;;5034484;28;20476;-85
2021/11/26 01:30:28;;;;;;;39.97;22.27;;;2.60;99.90;;;;;;5034380;28;20460;-85
2021/11/26 01:32:56;;;;;;;43.55;23.80;;;2.60;99.90;;;;;;5045720;28;20029;-85
2021/11/26 01:35:22;;;;;;;41.53;23.20;;;2.60;99.90;;;;;;5055522;28;20029;-86
2021/11/26 01:37:48;;;;;;;40.22;22.42;;;2.60;99.90;;;;;;5054261;28;20078;-84
2021/11/26 01:40:15;;;;;;;41.92;22.30;;;2.60;99.90;;;;;;5054699;28;20029;-85
2021/11/26 01:42:41;;;;;;;33.17;18.00;;;2.60;99.90;;;;;;5055590;28;20118;-85
2021/11/26 01:45:08;;;;;;;27.73;16.35;;;2.50;99.90;;;;;;5055584;28;20017;-85
2021/11/26 01:47:34;;;;;;;29.17;15.65;;;2.50;99.90;;;;;;5053684;28;20029;-85
2021/11/26 01:50:01;;;;;;;28.42;16.20;;;2.50;99.90;;;;;;5054000;28;20103;-85
2021/11/26 01:52:27;;;;;;;26.02;15.15;;;2.50;99.90;;;;;;5054004;28;20029;-85
2021/11/26 01:54:52;;;;;;;33.28;17.20;;;2.60;99.90;;;;;;5055375;28;20102;-85
2021/11/26 01:57:19;;;;;;;34.97;16.30;;;2.50;99.90;;;;;;5053837;28;20025;-86
2021/11/26 01:59:48;;;;;;;46.47;20.25;;;2.50;99.90;;;;;;5053718;28;20442;-85
2021/11/26 02:02:14;;;;;;;46.40;20.23;;;2.50;99.90;;;;;;5053788;28;20028;-85
2021/11/26 02:04:40;;;;;;;48.80;22.27;;;2.50;99.90;;;;;;5053643;28;20106;-85
2021/11/26 02:07:06;;;;;;;50.78;20.92;;;2.50;99.90;;;;;;5055281;28;20464;-85
2021/11/26 02:09:32;;;;;;;51.50;21.55;;;2.50;99.90;;;;;;5052731;28;20024;-85
2021/11/26 02:11:57;;;;;;;62.53;27.52;;;2.50;99.90;;;;;;5053552;28;20021;-85
2021/11/26 02:14:24;;;;;;;62.05;24.65;;;2.60;99.90;;;;;;5054924;28;20025;-85
2021/11/26 02:16:50;;;;;;;57.90;23.88;;;2.50;99.90;;;;;;5053476;28;20021;-85
2021/11/26 02:19:20;;;;;;;61.38;26.27;;;2.60;99.90;;;;;;5054655;28;20025;-85
2021/11/26 02:21:46;;;;;;;63.58;26.88;;;2.60;99.90;;;;;;5053407;28;20395;-85
2021/11/26 02:24:12;;;;;;;82.35;30.58;;;2.70;99.90;;;;;;5054765;28;20047;-85
2021/11/26 02:26:41;;;;;;;84.88;33.08;;;2.70;99.90;;;;;;5053869;28;20064;-85
2021/11/26 02:29:08;;;;;;;97.65;35.58;;;2.70;99.90;;;;;;5052995;28;20017;-85
2021/11/26 02:31:34;;;;;;;113.38;38.90;;;2.70;99.90;;;;;;5054547;28;20017;-85
2021/11/26 02:34:00;;;;;;;115.60;38.80;;;2.70;99.90;;;;;;5054401;28;20059;-85
2021/11/26 02:36:26;;;;;;;106.53;37.33;;;2.70;99.90;;;;;;5054330;28;20028;-85
2021/11/26 02:38:52;;;;;;;97.43;36.92;;;2.70;99.90;;;;;;5053044;28;20029;-85
2021/11/26 02:41:18;;;;;;;84.75;32.20;;;2.70;99.90;;;;;;5054499;28;20103;-85
2021/11/26 02:43:44;;;;;;;83.93;31.52;;;2.70;99.90;;;;;;5052942;28;20025;-85
2021/11/26 02:46:10;;;;;;;104.00;37.25;;;2.70;99.90;;;;;;5052501;28;20083;-85
2021/11/26 02:48:36;;;;;;;113.72;39.63;;;2.80;99.90;;;;;;5054122;28;20025;-85
2021/11/26 02:51:02;;;;;;;140.60;46.90;;;2.80;99.90;;;;;;5054068;28;20533;-85
2021/11/26 02:53:28;;;;;;;156.80;52.28;;;2.80;99.90;;;;;;5052792;28;20024;-85
2021/11/26 02:55:54;;;;;;;174.52;55.67;;;2.90;99.90;;;;;;5052697;28;20025;-85
2021/11/26 02:58:20;;;;;;;155.13;52.65;;;2.90;99.90;;;;;;5053985;28;20070;-85
2021/11/26 03:00:49;;;;;;;144.02;46.50;;;2.90;99.90;;;;;;5053958;28;20104;-85
2021/11/26 03:03:15;;;;;;;162.10;49.75;;;2.90;99.90;;;;;;5053441;28;20490;-85
2021/11/26 03:05:42;;;;;;;172.77;47.97;;;2.90;99.90;;;;;;5053812;28;20490;-84
2021/11/26 03:08:08;;;;;;;195.23;59.75;;;3.00;99.90;;;;;;5052573;28;20021;-84
2021/11/26 03:10:35;;;;;;;166.38;54.78;;;3.00;99.90;;;;;;5053734;28;20017;-85
2021/11/26 03:13:07;;;;;;;155.57;54.33;;;3.00;99.90;;;;;;5053760;28;20098;-85
2021/11/26 03:15:35;;;;;;;131.60;47.70;;;3.00;99.90;;;;;;5053824;28;20040;-85
2021/11/26 03:18:02;;;;;;;125.03;47.35;;;3.00;99.90;;;;;;5052487;28;20025;-85
2021/11/26 03:20:28;;;;;;;113.45;41.08;;;3.00;99.90;;;;;;5053494;28;20025;-85
2021/11/26 03:22:55;;;;;;;110.53;39.90;;;3.00;99.90;;;;;;5052434;28;20075;-84
2021/11/26 03:25:21;;;;;;;101.28;34.58;;;3.00;99.90;;;;;;5051857;28;20049;-85
2021/11/26 03:27:47;;;;;;;85.43;32.13;;;3.00;99.90;;;;;;5053708;28;20096;-85
2021/11/26 03:30:16;;;;;;;72.53;27.42;;;3.00;99.90;;;;;;5051590;28;20029;-85
2021/11/26 03:32:42;;;;;;;72.63;28.98;;;3.00;99.90;;;;;;5052327;28;20021;-85
2021/11/26 03:35:09;;;;;;;80.88;30.67;;;3.00;99.90;;;;;;5052289;28;20037;-84
2021/11/26 03:37:35;;;;;;;101.38;36.90;;;3.00;99.90;;;;;;5052287;28;20098;-85
2021/11/26 03:40:02;;;;;;;101.00;35.75;;;3.00;99.90;;;;;;5053391;28;20029;-85
2021/11/26 03:42:28;;;;;;;116.20;40.45;;;3.00;99.90;;;;;;5052197;28;20127;-84
2021/11/26 03:44:53;;;;;;;120.50;40.72;;;2.90;99.90;;;;;;5051503;28;20124;-84
2021/11/26 03:47:19;;;;;;;125.38;43.05;;;3.00;99.90;;;;;;5051815;28;20025;-84
2021/11/26 03:49:45;;;;;;;120.60;44.65;;;2.90;99.90;;;;;;5052214;28;20551;-85
2021/11/26 03:52:11;;;;;;;143.68;49.33;;;2.90;99.90;;;;;;5052041;28;20033;-85
2021/11/26 03:54:39;;;;;;;112.93;40.80;;;2.80;99.90;;;;;;5052039;28;20025;-84
2021/11/26 03:57:05;;;;;;;109.28;38.35;;;2.80;99.90;;;;;;5053279;28;20086;-84
2021/11/26 03:59:31;;;;;;;95.85;33.53;;;2.90;99.90;;;;;;5053112;28;20108;-84
2021/11/26 04:01:56;;;;;;;86.90;31.70;;;2.90;99.90;;;;;;5051796;28;20060;-84
2021/11/26 04:04:22;;;;;;;94.72;33.22;;;3.00;99.90;;;;;;5051921;28;20056;-84
2021/11/26 04:06:48;;;;;;;76.90;28.05;;;3.00;99.90;;;;;;5051927;28;20033;-85
2021/11/26 04:09:14;;;;;;;57.60;23.70;;;3.10;99.90;;;;;;5051866;28;20383;-84
2021/11/26 04:11:39;;;;;;;40.35;20.23;;;3.10;99.90;;;;;;5053397;28;20025;-84
2021/11/26 04:14:05;;;;;;;34.95;17.38;;;3.20;99.90;;;;;;5051312;28;20022;-83
2021/11/26 04:16:33;;;;;;;34.35;18.23;;;3.20;99.90;;;;;;5051766;28;20033;-85
2021/11/26 04:18:59;;;;;;;33.20;18.67;;;3.20;99.90;;;;;;5053001;28;20032;-80
2021/11/26 04:21:24;;;;;;;38.38;20.23;;;3.20;99.90;;;;;;5052945;28;20029;-81
2021/11/26 04:23:50;;;;;;;34.65;18.25;;;3.20;99.90;;;;;;5052698;28;20029;-81
2021/11/26 04:26:16;;;;;;;30.70;17.52;;;3.30;99.90;;;;;;5050709;28;20148;-80
2021/11/26 04:28:42;;;;;;;36.55;18.90;;;3.20;99.90;;;;;;5051596;28;20383;-80
2021/11/26 04:31:07;;;;;;;36.30;18.65;;;3.20;99.90;;;;;;5051661;28;20036;-80
2021/11/26 04:33:34;;;;;;;34.45;18.15;;;3.30;99.90;;;;;;5053667;28;20032;-80
2021/11/26 04:36:01;;;;;;;35.97;18.23;;;3.30;99.90;;;;;;5055322;28;20039;-80
2021/11/26 04:38:27;;;;;;;41.38;22.27;;;3.30;99.90;;;;;;5054960;28;20029;-80
2021/11/26 04:40:53;;;;;;;39.00;19.80;;;3.30;99.90;;;;;;5056432;28;20029;-80
2021/11/26 04:43:20;;;;;;;37.85;19.48;;;3.20;99.90;;;;;;5056359;28;20032;-80
2021/11/26 15:15:13;;;;;;;27.50;15.57;;;6.10;99.90;;;;;;5131660;27;20475;-84
2021/11/26 15:17:39;;;;;;;27.23;15.23;;;6.10;99.90;;;;;;5113292;28;20049;-84
2021/11/26 15:20:05;;;;;;;29.88;16.45;;;6.10;99.90;;;;;;5131661;28;20051;-83
2021/11/26 15:22:31;;;;;;;29.15;16.67;;;6.10;99.90;;;;;;5113216;28;20026;-82
2021/11/26 15:24:57;;;;;;;26.50;15.75;;;6.10;99.90;;;;;;5131491;28;20027;-83
2021/11/26 15:27:25;;;;;;;24.52;15.38;;;6.10;99.90;;;;;;5112831;28;20049;-84
2021/11/26 15:29:51;;;;;;;27.42;16.45;;;6.10;99.90;;;;;;5113117;28;20024;-82
2021/11/26 15:32:16;;;;;;;24.10;14.40;;;6.20;99.90;;;;;;5131439;28;20079;-82
2021/11/26 15:34:42;;;;;;;22.15;13.43;;;6.20;99.90;;;;;;5112719;28;20076;-82
2021/11/26 15:37:08;;;;;;;24.15;13.65;;;6.20;99.90;;;;;;5113122;28;20367;-82
2021/11/26 15:39:34;;;;;;;22.35;14.13;;;6.20;99.90;;;;;;5112377;28;20023;-84
2021/11/26 15:41:59;;;;;;;28.75;15.18;;;6.20;99.90;;;;;;5112873;28;20099;-83
2021/11/26 15:44:25;;;;;;;23.23;14.73;;;6.20;99.90;;;;;;5131360;28;20016;-83
2021/11/26 15:46:51;;;;;;;37.30;18.98;;;6.20;99.90;;;;;;5130616;28;20020;-82
2021/11/26 15:49:17;;;;;;;48.25;23.15;;;6.20;99.90;;;;;;5112679;28;20388;-82
2021/11/26 15:51:42;;;;;;;58.85;24.48;;;6.20;99.90;;;;;;5112349;28;20024;-82
2021/11/26 15:54:09;;;;;;;68.32;27.40;;;6.20;99.90;;;;;;5131070;28;20027;-84
2021/11/26 15:56:35;;;;;;;53.75;23.15;;;6.30;99.90;;;;;;5130976;28;20027;-82
2021/11/26 15:59:00;;;;;;;57.15;23.60;;;6.20;99.90;;;;;;5131025;28;20072;-82
2021/11/26 16:01:27;;;;;;;53.08;22.27;;;6.30;99.90;;;;;;5130995;28;20379;-83
2021/11/26 16:03:54;;;;;;;48.28;21.05;;;6.30;99.90;;;;;;5112181;28;20114;-83
2021/11/26 16:06:26;;;;;;;49.20;20.85;;;6.30;99.90;;;;;;5130630;28;20023;-84
2021/11/26 16:08:54;;;;;;;49.60;23.58;;;6.30;99.90;;;;;;5111840;28;20019;-82
2021/11/26 16:11:25;;;;;;;54.00;21.42;;;6.30;99.90;;;;;;5112313;28;20389;-81
2021/11/26 16:13:51;;;;;;;48.28;21.55;;;6.30;99.90;;;;;;5111958;28;20077;-82
2021/11/26 16:16:17;;;;;;;40.05;19.70;;;6.30;99.90;;;;;;5112109;28;20016;-82
2021/11/26 16:18:42;;;;;;;41.47;20.02;;;6.30;99.90;;;;;;5112130;28;20023;-83
2021/11/26 16:21:08;;;;;;;36.42;17.17;;;6.30;99.90;;;;;;5112088;28;20473;-83
2021/11/26 16:23:35;;;;;;;29.38;15.80;;;6.30;99.90;;;;;;5112352;28;20098;-89
2021/11/26 16:26:01;;;;;;;33.97;16.63;;;6.30;99.90;;;;;;5102117;28;20482;-84
2021/11/26 16:28:27;;;;;;;39.20;17.42;;;6.30;99.90;;;;;;5097909;28;20035;-83
2021/11/26 16:33:54;;;;;;;24.35;14.63;;;6.30;99.90;;;;;;5115909;28;20027;-82
2021/11/26 16:36:22;;;;;;;32.45;16.10;;;6.30;99.90;;;;;;5116001;28;20019;-83
2021/11/26 16:38:48;;;;;;;21.58;14.07;;;6.30;99.90;;;;;;5097659;28;20359;-84
2021/11/26 16:41:14;;;;;;;34.38;16.08;;;6.30;99.90;;;;;;5097467;28;20049;-84
2021/11/26 16:43:40;;;;;;;22.58;14.75;;;6.30;99.90;;;;;;5115803;28;20028;-84
2021/11/26 16:46:06;;;;;;;28.52;15.57;;;6.30;99.90;;;;;;5097436;28;20030;-84
2021/11/26 16:48:31;;;;;;;34.80;15.40;;;6.20;99.90;;;;;;5115649;28;20546;-84
2021/11/26 16:50:57;;;;;;;22.48;13.85;;;6.20;99.90;;;;;;5097509;28;20026;-84
2021/11/26 16:53:23;;;;;;;26.15;13.93;;;6.30;99.90;;;;;;5115619;28;20046;-83
2021/11/26 16:55:49;;;;;;;23.75;14.15;;;6.30;99.90;;;;;;5097358;28;20098;-84
2021/11/26 16:58:15;;;;;;;28.05;14.48;;;6.30;99.90;;;;;;5097124;28;20123;-84
2021/11/26 17:00:41;;;;;;;28.15;14.55;;;6.30;99.90;;;;;;5115364;28;20022;-84
2021/11/26 17:03:06;;;;;;;37.55;16.15;;;6.30;99.90;;;;;;5097069;28;20023;-85
2021/11/26 17:05:34;;;;;;;50.22;20.05;;;6.30;99.90;;;;;;5115407;28;20107;-84
2021/11/26 17:07:59;;;;;;;44.17;17.77;;;6.30;99.90;;;;;;5115337;28;20019;-84
2021/11/26 17:10:25;;;;;;;42.53;19.10;;;6.30;99.90;;;;;;5096896;28;20022;-84
2021/11/26 17:12:51;;;;;;;32.70;15.32;;;6.30;99.90;;;;;;5096718;28;20162;-84
2021/11/26 17:15:18;;;;;;;23.50;14.07;;;6.40;99.90;;;;;;5096787;28;20035;-84
2021/11/26 17:17:44;;;;;;;22.63;12.40;;;6.30;99.90;;;;;;5097150;28;20020;-85
2021/11/26 17:20:10;;;;;;;18.67;11.73;;;6.40;99.90;;;;;;5115199;28;20026;-85
2021/11/26 17:22:37;;;;;;;20.45;12.23;;;6.40;99.90;;;;;;5115052;28;20028;-85
2021/11/26 17:25:04;;;;;;;16.48;11.45;;;6.30;99.90;;;;;;5096682;28;20023;-84
2021/11/26 17:27:30;;;;;;;16.80;11.60;;;6.30;99.90;;;;;;5096039;28;20081;-84
2021/11/26 17:29:56;;;;;;;16.08;10.63;;;6.40;99.90;;;;;;5114688;28;20080;-84
2021/11/26 17:32:23;;;;;;;17.25;11.23;;;6.40;99.90;;;;;;5096591;28;20122;-84
2021/11/26 17:34:49;;;;;;;16.15;11.00;;;6.30;99.90;;;;;;5096407;28;20038;-85
2021/11/26 17:37:15;;;;;;;15.88;10.27;;;6.30;99.90;;;;;;5113773;28;20031;-85
2021/11/26 17:39:42;;;;;;;15.45;10.30;;;6.30;99.90;;;;;;5096419;28;20470;-83
2021/11/26 17:42:09;;;;;;;14.45;9.48;;;6.30;99.90;;;;;;5096292;28;20019;-83
2021/11/26 17:44:35;;;;;;;14.15;10.38;;;6.30;99.90;;;;;;5096242;28;20039;-83
2021/11/26 17:47:01;;;;;;;19.65;10.95;;;6.30;99.90;;;;;;5096247;28;20024;-83
2021/11/26 17:49:27;;;;;;;14.43;10.25;;;6.30;99.90;;;;;;5096033;28;20023;-83
2021/11/26 17:51:59;;;;;;;16.40;10.75;;;6.30;99.90;;;;;;5096034;28;20168;-83
2021/11/26 17:54:26;;;;;;;16.40;10.45;;;6.30;99.90;;;;;;5096086;28;20426;-84
2021/11/26 17:56:53;;;;;;;14.23;9.90;;;6.20;99.90;;;;;;5095869;28;20016;-83
2021/11/26 17:59:19;;;;;;;16.50;10.52;;;6.30;99.90;;;;;;5095962;28;20047;-83
2021/11/26 18:01:46;;;;;;;18.70;10.50;;;6.20;99.90;;;;;;5096064;28;20492;-84
2021/11/26 18:04:16;;;;;;;15.63;9.82;;;6.20;99.90;;;;;;5095747;28;20032;-85
2021/11/26 18:06:48;;;;;;;19.00;9.55;;;6.20;99.90;;;;;;5114173;28;20030;-84
2021/11/26 18:09:19;;;;;;;14.70;8.98;;;6.20;99.90;;;;;;5095850;28;20024;-84
2021/11/26 18:11:53;;;;;;;13.90;9.13;;;6.20;99.90;;;;;;5095752;28;20036;-84
2021/11/26 18:14:19;;;;;;;14.07;9.70;;;6.20;99.90;;;;;;5078628;28;20049;-85
2021/11/26 18:16:45;;;;;;;15.43;9.85;;;6.20;99.90;;;;;;5073631;28;20151;-84
2021/11/26 18:19:10;;;;;;;14.52;9.30;;;6.20;99.90;;;;;;5072241;28;20024;-84
2021/11/26 18:21:36;;;;;;;14.02;9.25;;;6.10;99.90;;;;;;5073941;28;20029;-84
2021/11/26 18:24:02;;;;;;;16.08;10.85;;;6.20;99.90;;;;;;5073880;28;20028;-84
2021/11/26 18:26:28;;;;;;;15.75;10.35;;;6.10;99.90;;;;;;5072285;28;20032;-84
2021/11/26 18:28:53;;;;;;;15.73;10.32;;;6.10;99.90;;;;;;5072458;28;20086;-84
2021/11/26 18:31:19;;;;;;;17.45;10.45;;;6.10;99.90;;;;;;5072468;28;20028;-84
2021/11/26 18:33:51;;;;;;;13.90;10.15;;;6.20;99.90;;;;;;5072193;28;20040;-84
2021/11/26 18:36:18;;;;;;;14.88;10.57;;;6.20;99.90;;;;;;5072408;28;20386;-84
2021/11/26 18:38:44;;;;;;;16.85;11.23;;;6.20;99.90;;;;;;5072370;28;20024;-83
2021/11/26 18:41:15;;;;;;;18.15;11.02;;;6.10;99.90;;;;;;5072342;28;20094;-83
2021/11/26 18:43:43;;;;;;;16.45;10.90;;;6.10;99.90;;;;;;5072109;28;20024;-84
2021/11/26 18:46:09;;;;;;;16.85;10.70;;;6.10;99.90;;;;;;5073494;28;20474;-84
2021/11/26 18:48:34;;;;;;;16.75;10.77;;;6.10;99.90;;;;;;5072160;28;20032;-85
2021/11/26 18:51:00;;;;;;;16.83;11.32;;;6.10;99.90;;;;;;5072155;28;20025;-85
2021/11/26 18:53:26;;;;;;;20.58;11.18;;;6.10;99.90;;;;;;5072098;28;20036;-84
2021/11/26 18:55:52;;;;;;;17.38;11.98;;;6.10;99.90;;;;;;5071947;28;20025;-84
2021/11/26 18:58:18;;;;;;;20.65;13.05;;;6.10;99.90;;;;;;5072138;28;20033;-84
2021/11/26 19:00:45;;;;;;;22.30;14.82;;;6.10;99.90;;;;;;5072087;28;20545;-84
2021/11/26 19:03:11;;;;;;;26.95;14.70;;;6.10;99.90;;;;;;5073287;28;20017;-84
2021/11/26 19:05:38;;;;;;;25.10;14.93;;;6.10;99.90;;;;;;5072106;28;20023;-84
2021/11/26 19:08:06;;;;;;;21.80;14.30;;;6.20;99.90;;;;;;5072082;28;20052;-83
2021/11/26 19:10:33;;;;;;;24.23;14.20;;;6.20;99.90;;;;;;5071765;28;20025;-83
2021/11/26 19:13:02;;;;;;;20.40;13.25;;;6.20;99.90;;;;;;5075203;28;20036;-82
2021/11/26 19:15:29;;;;;;;21.02;14.07;;;6.20;99.90;;;;;;5095488;28;20023;-82
2021/11/26 19:17:55;;;;;;;21.35;13.55;;;6.20;99.90;;;;;;5095506;28;20079;-82
2021/11/26 19:20:21;;;;;;;23.83;14.48;;;6.20;99.90;;;;;;5094423;28;20023;-82
2021/11/26 19:22:47;;;;;;;23.02;13.75;;;6.20;99.90;;;;;;5113319;28;20076;-82
2021/11/26 19:25:15;;;;;;;24.38;14.30;;;6.20;99.90;;;;;;5113770;28;20152;-82
2021/11/26 19:27:42;;;;;;;31.73;21.25;;;6.20;99.90;;;;;;5095058;28;20523;-82
2021/11/26 19:30:10;;;;;;;42.45;26.27;;;6.20;99.90;;;;;;5095185;28;20377;-82
2021/11/26 19:32:37;;;;;;;43.45;27.70;;;6.10;99.90;;;;;;5095248;28;20470;-82
2021/11/26 19:35:05;;;;;;;43.72;25.75;;;6.10;99.90;;;;;;5094905;28;20038;-82
2021/11/26 19:37:35;;;;;;;30.95;18.38;;;6.20;99.90;;;;;;5095130;28;20504;-83
2021/11/26 19:40:07;;;;;;;23.38;15.43;;;6.20;99.90;;;;;;5095145;28;20024;-82
2021/11/26 19:42:33;;;;;;;22.58;14.73;;;6.20;99.90;;;;;;5113548;28;20367;-83
2021/11/26 19:44:59;;;;;;;21.75;15.32;;;6.10;99.90;;;;;;5112933;28;20128;-83
2021/11/26 19:47:26;;;;;;;24.77;14.85;;;6.10;99.90;;;;;;5095144;28;20192;-82
2021/11/26 19:49:54;;;;;;;27.73;15.75;;;6.10;99.90;;;;;;5095163;28;20050;-81
2021/11/26 19:52:22;;;;;;;24.17;15.68;;;6.10;99.90;;;;;;5095199;28;20028;-83
2021/11/26 19:54:52;;;;;;;39.10;17.85;;;6.10;99.90;;;;;;5095009;28;20023;-83
2021/11/26 19:57:18;;;;;;;34.47;18.60;;;6.00;99.90;;;;;;5113150;28;20023;-85
2021/11/26 19:59:44;;;;;;;31.35;18.67;;;5.90;99.90;;;;;;5113010;28;20031;-84
2021/11/26 20:02:10;;;;;;;33.58;18.80;;;5.90;99.90;;;;;;5098789;28;20055;-82
2021/11/26 20:04:36;;;;;;;33.38;19.38;;;5.90;99.90;;;;;;5098833;28;20073;-84
2021/11/26 20:07:02;;;;;;;35.47;20.83;;;5.80;99.90;;;;;;5099196;28;20039;-84
2021/11/26 20:09:28;;;;;;;37.88;21.42;;;5.80;99.90;;;;;;5098825;28;20019;-84
2021/11/26 20:11:54;;;;;;;42.70;22.10;;;5.80;99.90;;;;;;5098840;28;20028;-83
2021/11/26 20:14:25;;;;;;;42.45;20.83;;;5.80;99.90;;;;;;5098487;28;20056;-83
2021/11/26 20:16:52;;;;;;;33.92;20.67;;;5.70;99.90;;;;;;5116691;28;20650;-84
2021/11/26 20:19:18;;;;;;;33.20;18.23;;;5.80;99.90;;;;;;5098729;28;20433;-83
2021/11/26 20:21:45;;;;;;;33.10;19.13;;;5.80;99.90;;;;;;5116590;28;20040;-82
2021/11/26 20:24:12;;;;;;;30.80;18.77;;;5.80;99.90;;;;;;5098415;28;20047;-83
2021/11/26 20:26:38;;;;;;;30.77;17.90;;;5.80;99.90;;;;;;5098186;28;20051;-83
2021/11/26 20:29:05;;;;;;;33.15;18.67;;;5.80;99.90;;;;;;5098147;28;20115;-83
2021/11/26 20:31:31;;;;;;;40.85;20.50;;;5.70;99.90;;;;;;5097766;28;20031;-83
2021/11/26 20:33:57;;;;;;;34.33;18.52;;;5.70;99.90;;;;;;5115991;28;20034;-84
2021/11/26 20:36:24;;;;;;;38.25;19.98;;;5.70;99.90;;;;;;5098323;28;20024;-85
2021/11/26 20:38:50;;;;;;;38.15;19.58;;;5.70;99.90;;;;;;5116374;28;20062;-84
2021/11/26 20:41:15;;;;;;;34.15;18.55;;;5.70;99.90;;;;;;5098359;28;20051;-84
2021/11/26 20:43:41;;;;;;;33.47;18.35;;;5.60;99.90;;;;;;5116144;28;20037;-84
2021/11/26 20:46:07;;;;;;;33.53;18.27;;;5.60;99.90;;;;;;5097854;28;20035;-82
2021/11/26 20:48:33;;;;;;;36.30;18.15;;;5.60;99.90;;;;;;5098005;28;20032;-82
2021/11/26 20:50:59;;;;;;;28.98;16.33;;;5.60;99.90;;;;;;5116301;28;20059;-83
2021/11/26 20:53:24;;;;;;;34.67;17.95;;;5.60;99.90;;;;;;5097793;28;20481;-84
2021/11/26 20:55:50;;;;;;;31.90;18.08;;;5.60;99.90;;;;;;5097745;28;20778;-82
2021/11/26 20:58:16;;;;;;;30.42;18.30;;;5.60;99.90;;;;;;5115796;28;20035;-83
2021/11/26 21:00:42;;;;;;;30.10;16.88;;;5.50;99.90;;;;;;5097767;28;20024;-83
2021/11/26 21:03:08;;;;;;;29.83;17.23;;;5.60;99.90;;;;;;5097725;28;20433;-83
2021/11/26 21:05:35;;;;;;;30.55;17.60;;;5.60;99.90;;;;;;5097280;28;20055;-83
2021/11/26 21:08:01;;;;;;;28.65;18.27;;;5.60;99.90;;;;;;5097579;28;20016;-83
2021/11/26 21:10:28;;;;;;;32.15;19.40;;;5.60;99.90;;;;;;5097708;28;20061;-83
2021/11/26 21:12:54;;;;;;;41.60;20.30;;;5.50;99.90;;;;;;5115436;28;20061;-83
2021/11/26 21:15:20;;;;;;;38.92;20.52;;;5.50;99.90;;;;;;5097369;28;20028;-82
2021/11/26 21:17:48;;;;;;;38.97;21.55;;;5.40;99.90;;;;;;5115682;28;20043;-83
2021/11/26 21:20:15;;;;;;;38.28;22.38;;;5.50;99.90;;;;;;5115656;28;20012;-83
2021/11/26 21:22:42;;;;;;;35.50;21.00;;;5.50;99.90;;;;;;5115634;28;20019;-83
2021/11/26 21:25:10;;;;;;;43.03;23.67;;;5.40;99.90;;;;;;5115607;28;20026;-83
2021/11/26 21:27:37;;;;;;;42.33;23.45;;;5.30;99.90;;;;;;5097142;28;20068;-82
2021/11/26 21:30:07;;;;;;;39.63;23.05;;;5.40;99.90;;;;;;5097192;28;20024;-83
2021/11/26 21:32:34;;;;;;;41.30;23.02;;;5.40;99.90;;;;;;5115520;28;20027;-83
2021/11/26 21:35:00;;;;;;;45.40;24.50;;;5.30;99.90;;;;;;5115118;28;20031;-81
2021/11/26 21:37:26;;;;;;;42.97;24.70;;;5.40;99.90;;;;;;5096983;28;20102;-81
2021/11/26 21:39:52;;;;;;;43.70;25.42;;;5.40;99.90;;;;;;5115317;28;20058;-81
2021/11/26 21:42:23;;;;;;;47.80;24.98;;;5.40;99.90;;;;;;5097064;28;20015;-81
2021/11/26 21:44:48;;;;;;;54.97;30.67;;;5.40;99.90;;;;;;5097078;28;20126;-82
2021/11/26 21:47:14;;;;;;;56.55;29.77;;;5.30;99.90;;;;;;5097358;28;20084;-81
2021/11/26 21:49:40;;;;;;;61.75;32.88;;;5.40;99.90;;;;;;5114729;28;20032;-82
2021/11/26 21:52:06;;;;;;;56.30;31.95;;;5.30;99.90;;;;;;5115407;28;20405;-81
2021/11/26 21:54:32;;;;;;;60.05;33.55;;;5.30;99.90;;;;;;5096922;28;20027;-81
2021/11/26 21:56:58;;;;;;;57.30;34.65;;;5.30;99.90;;;;;;5115309;28;20125;-81
2021/11/26 21:59:24;;;;;;;63.90;34.75;;;5.30;99.90;;;;;;5096623;28;20077;-81
2021/11/26 22:01:49;;;;;;;58.90;34.22;;;5.30;99.90;;;;;;5115094;28;20016;-81
2021/11/26 22:04:16;;;;;;;62.90;32.65;;;5.30;99.90;;;;;;5096980;28;20488;-81
2021/11/26 22:06:42;;;;;;;56.05;32.05;;;5.30;99.90;;;;;;5115374;28;20016;-81
2021/11/26 22:09:07;;;;;;;60.40;34.22;;;5.30;99.90;;;;;;5114725;28;20028;-81
2021/11/26 22:11:33;;;;;;;65.75;35.65;;;5.30;99.90;;;;;;5096805;28;20036;-81
2021/11/26 22:14:00;;;;;;;67.20;36.58;;;5.30;99.90;;;;;;5114717;28;20051;-81
2021/11/26 22:16:26;;;;;;;66.88;37.10;;;5.20;99.90;;;;;;5114847;28;20019;-80
2021/11/26 22:18:52;;;;;;;65.70;34.78;;;5.20;99.90;;;;;;5114839;28;20094;-81
2021/11/26 22:21:18;;;;;;;62.58;33.05;;;5.20;99.90;;;;;;5096599;28;20530;-81
2021/11/26 22:23:44;;;;;;;64.88;35.10;;;5.30;99.90;;;;;;5095790;28;20126;-81
2021/11/26 22:26:11;;;;;;;63.95;33.17;;;5.20;99.90;;;;;;5096392;28;20470;-81
2021/11/26 22:28:40;;;;;;;64.88;33.42;;;5.20;99.90;;;;;;5114702;28;20019;-81
2021/11/26 22:31:06;;;;;;;65.18;31.80;;;5.30;99.90;;;;;;5114631;28;20466;-81
2021/11/26 22:33:32;;;;;;;57.20;32.22;;;5.30;99.90;;;;;;5096243;28;20031;-81
2021/11/26 22:35:58;;;;;;;63.05;31.35;;;5.30;99.90;;;;;;5096276;28;20111;-81
2021/11/26 22:38:25;;;;;;;59.30;31.80;;;5.40;99.90;;;;;;5095966;28;20531;-81
2021/11/26 22:40:52;;;;;;;66.63;31.58;;;5.30;99.90;;;;;;5114764;28;20413;-81
2021/11/26 22:43:19;;;;;;;59.42;30.65;;;5.30;99.90;;;;;;5095999;28;20024;-81
2021/11/26 22:45:50;;;;;;;64.50;32.53;;;5.40;99.90;;;;;;5114441;28;20047;-81
2021/11/26 22:48:16;;;;;;;64.97;31.52;;;5.30;99.90;;;;;;5114263;28;20377;-82
2021/11/26 22:50:42;;;;;;;61.58;31.95;;;5.30;99.90;;;;;;5114354;28;20015;-81
2021/11/26 22:53:08;;;;;;;56.10;29.92;;;5.30;99.90;;;;;;5095758;28;20038;-81
2021/11/26 22:55:35;;;;;;;55.03;29.48;;;5.30;99.90;;;;;;5114231;28;20397;-81
2021/11/26 22:58:02;;;;;;;49.20;27.27;;;5.40;99.90;;;;;;5095982;28;20466;-81
2021/11/26 23:00:33;;;;;;;49.53;28.10;;;5.40;99.90;;;;;;5095992;28;20020;-81
2021/11/26 23:03:05;;;;;;;52.05;25.95;;;5.40;99.90;;;;;;5114498;28;20011;-81
2021/11/26 23:05:31;;;;;;;52.75;26.92;;;5.40;99.90;;;;;;5095982;28;20035;-81